KDVN/DVN METAR and TAF weather

Enter ICAO airport designator
Station Type Date Time Source
KDVN METAR 2021/09/16 10:52 UTC NOAA

KDVN 161052Z AUTO 14006KT 10SM CLR 14/08 A3007 RMK AO2 SLP175 T01440083


Station Type Date Time Source
KDVN Decoded METAR 2021/09/16 10:52 UTC NOAA

DAVENPORT MUNICIPAL AIRPORT, IA, United States (KDVN) 41-37N 90-35W 228M
Sep 16, 2021 - 06:52 AM EDT / 2021.09.16 1052 UTC
Wind: from the SE (140 degrees) at 7 MPH (6 KT):0
Visibility: 10 mile(s):0
Sky conditions: clear
Temperature: 57.9 F (14.4 C)
Dew Point: 46.9 F (8.3 C)
Relative Humidity: 66%
Pressure (altimeter): 30.07 in. Hg (1018 hPa)
ob: KDVN 161052Z AUTO 14006KT 10SM CLR 14/08 A3007 RMK AO2 SLP175 T01440083
cycle: 11

Station Type Date Time Source
KDVN TAF UTC NOAA

Error!

Example: see airport list